sensor_id;sensor_type;location;lat;lon;timestamp;temperature;humidity
10536;DHT22;5316;49.538;8.352;2023-03-23T00:00:32;15.00;1.00
10536;DHT22;5316;49.538;8.352;2023-03-23T00:16:37;15.00;1.00
10536;DHT22;5316;49.538;8.352;2023-03-23T04:45:24;14.10;1.00
10536;DHT22;5316;49.538;8.352;2023-03-23T04:47:56;14.10;1.00
10536;DHT22;5316;49.538;8.352;2023-03-23T06:36:30;13.90;24.60
10536;DHT22;5316;49.538;8.352;2023-03-23T06:38:58;13.80;19.00
10536;DHT22;5316;49.538;8.352;2023-03-23T06:41:48;13.90;12.50
10536;DHT22;5316;49.538;8.352;2023-03-23T06:44:36;14.00;10.80
10536;DHT22;5316;49.538;8.352;2023-03-23T06:47:04;14.00;10.40
10536;DHT22;5316;49.538;8.352;2023-03-23T06:49:34;14.00;9.80
10536;DHT22;5316;49.538;8.352;2023-03-23T06:52:05;14.00;11.30
10536;DHT22;5316;49.538;8.352;2023-03-23T06:54:46;14.00;16.50
10536;DHT22;5316;49.538;8.352;2023-03-23T06:57:13;13.90;22.80
10536;DHT22;5316;49.538;8.352;2023-03-23T06:59:40;13.90;26.90
10536;DHT22;5316;49.538;8.352;2023-03-23T07:02:13;13.80;28.50
10536;DHT22;5316;49.538;8.352;2023-03-23T07:04:47;13.80;26.50
10536;DHT22;5316;49.538;8.352;2023-03-23T07:07:17;13.80;32.80
10536;DHT22;5316;49.538;8.352;2023-03-23T07:10:21;13.70;36.90
10536;DHT22;5316;49.538;8.352;2023-03-23T07:15:35;13.70;29.30
10536;DHT22;5316;49.538;8.352;2023-03-23T07:18:10;13.80;30.00
10536;DHT22;5316;49.538;8.352;2023-03-23T07:20:46;13.70;33.60
10536;DHT22;5316;49.538;8.352;2023-03-23T07:23:38;13.70;38.90
10536;DHT22;5316;49.538;8.352;2023-03-23T07:26:11;13.70;48.30
10536;DHT22;5316;49.538;8.352;2023-03-23T07:28:48;13.70;52.50
10536;DHT22;5316;49.538;8.352;2023-03-23T07:31:29;13.70;53.10
10536;DHT22;5316;49.538;8.352;2023-03-23T07:34:04;13.70;61.90
10536;DHT22;5316;49.538;8.352;2023-03-23T07:36:45;13.60;69.90
10536;DHT22;5316;49.538;8.352;2023-03-23T07:40:03;13.60;69.50
10536;DHT22;5316;49.538;8.352;2023-03-23T07:42:51;13.70;71.60
10536;DHT22;5316;49.538;8.352;2023-03-23T07:45:25;13.60;80.80
10536;DHT22;5316;49.538;8.352;2023-03-23T07:47:58;13.60;85.20
10536;DHT22;5316;49.538;8.352;2023-03-23T07:50:38;13.60;90.60
10536;DHT22;5316;49.538;8.352;2023-03-23T07:53:19;13.60;92.60
10536;DHT22;5316;49.538;8.352;2023-03-23T07:55:50;13.60;93.40
10536;DHT22;5316;49.538;8.352;2023-03-23T07:58:21;13.60;97.80
10536;DHT22;5316;49.538;8.352;2023-03-23T08:00:57;13.60;99.00
10536;DHT22;5316;49.538;8.352;2023-03-23T08:03:44;13.50;99.90
10536;DHT22;5316;49.538;8.352;2023-03-23T08:06:43;13.50;99.90
10536;DHT22;5316;49.538;8.352;2023-03-23T08:09:17;13.50;99.90
10536;DHT22;5316;49.538;8.352;2023-03-23T08:11:54;13.50;99.90
10536;DHT22;5316;49.538;8.352;2023-03-23T08:14:27;13.50;99.90
10536;DHT22;5316;49.538;8.352;2023-03-23T08:17:10;13.50;99.90
10536;DHT22;5316;49.538;8.352;2023-03-23T08:19:51;13.60;99.90
10536;DHT22;5316;49.538;8.352;2023-03-23T08:22:23;13.60;99.90
10536;DHT22;5316;49.538;8.352;2023-03-23T08:25:04;13.60;99.90
10536;DHT22;5316;49.538;8.352;2023-03-23T08:27:48;13.60;99.90
10536;DHT22;5316;49.538;8.352;2023-03-23T08:30:38;13.60;99.90
10536;DHT22;5316;49.538;8.352;2023-03-23T08:33:10;13.60;94.70
10536;DHT22;5316;49.538;8.352;2023-03-23T08:35:43;13.70;91.20
10536;DHT22;5316;49.538;8.352;2023-03-23T08:38:26;13.70;86.20
10536;DHT22;5316;49.538;8.352;2023-03-23T08:41:14;13.70;86.10
10536;DHT22;5316;49.538;8.352;2023-03-23T08:43:48;13.80;74.00
10536;DHT22;5316;49.538;8.352;2023-03-23T08:46:29;13.70;68.80
10536;DHT22;5316;49.538;8.352;2023-03-23T08:50:42;13.80;71.20
10536;DHT22;5316;49.538;8.352;2023-03-23T08:52:35;13.80;70.20
10536;DHT22;5316;49.538;8.352;2023-03-23T08:55:44;13.90;51.70
10536;DHT22;5316;49.538;8.352;2023-03-23T08:58:47;14.00;48.60
10536;DHT22;5316;49.538;8.352;2023-03-23T09:01:45;14.10;28.40
10536;DHT22;5316;49.538;8.352;2023-03-23T09:04:20;14.20;30.40
10536;DHT22;5316;49.538;8.352;2023-03-23T09:07:26;14.20;23.90
10536;DHT22;5316;49.538;8.352;2023-03-23T09:13:32;14.40;10.50
10536;DHT22;5316;49.538;8.352;2023-03-23T09:16:38;14.50;8.50
10536;DHT22;5316;49.538;8.352;2023-03-23T09:19:35;14.60;2.60
10536;DHT22;5316;49.538;8.352;2023-03-23T09:22:15;14.60;1.20
10536;DHT22;5316;49.538;8.352;2023-03-23T09:25:12;14.60;1.00
10536;DHT22;5316;49.538;8.352;2023-03-23T09:28:13;14.60;1.00
10536;DHT22;5316;49.538;8.352;2023-03-23T09:31:06;14.60;1.10
10536;DHT22;5316;49.538;8.352;2023-03-23T09:34:02;14.50;1.00
10536;DHT22;5316;49.538;8.352;2023-03-23T09:36:54;14.40;1.00
10536;DHT22;5316;49.538;8.352;2023-03-23T09:39:56;14.30;5.60
10536;DHT22;5316;49.538;8.352;2023-03-23T09:42:56;14.20;24.50
10536;DHT22;5316;49.538;8.352;2023-03-23T09:46:00;14.20;45.60
10536;DHT22;5316;49.538;8.352;2023-03-23T09:48:56;14.20;88.70
10536;DHT22;5316;49.538;8.352;2023-03-23T10:02:25;14.00;99.90
10536;DHT22;5316;49.538;8.352;2023-03-23T10:05:36;14.10;99.90
10536;DHT22;5316;49.538;8.352;2023-03-23T10:08:21;14.10;99.90
10536;DHT22;5316;49.538;8.352;2023-03-23T10:11:15;14.10;99.90
10536;DHT22;5316;49.538;8.352;2023-03-23T10:14:29;14.20;99.90
10536;DHT22;5316;49.538;8.352;2023-03-23T10:20:35;14.70;74.60
10536;DHT22;5316;49.538;8.352;2023-03-23T10:46:47;15.80;1.00
10536;DHT22;5316;49.538;8.352;2023-03-23T10:49:22;15.70;1.00
10536;DHT22;5316;49.538;8.352;2023-03-23T10:52:03;15.50;1.00
10536;DHT22;5316;49.538;8.352;2023-03-23T10:54:36;15.30;3.80
10536;DHT22;5316;49.538;8.352;2023-03-23T10:57:13;15.20;13.10
10536;DHT22;5316;49.538;8.352;2023-03-23T10:59:47;15.00;19.10
10536;DHT22;5316;49.538;8.352;2023-03-23T11:02:18;14.90;25.90
10536;DHT22;5316;49.538;8.352;2023-03-23T11:04:47;14.80;40.60
10536;DHT22;5316;49.538;8.352;2023-03-23T11:07:25;14.70;52.20
10536;DHT22;5316;49.538;8.352;2023-03-23T11:09:55;14.70;55.70
10536;DHT22;5316;49.538;8.352;2023-03-23T11:12:23;14.80;67.10
10536;DHT22;5316;49.538;8.352;2023-03-23T11:14:50;14.70;86.40
10536;DHT22;5316;49.538;8.352;2023-03-23T11:17:24;14.70;99.90
10536;DHT22;5316;49.538;8.352;2023-03-23T11:19:52;14.70;99.90
10536;DHT22;5316;49.538;8.352;2023-03-23T11:22:24;14.60;99.90
10536;DHT22;5316;49.538;8.352;2023-03-23T11:24:53;14.50;99.90
10536;DHT22;5316;49.538;8.352;2023-03-23T11:27:22;14.50;99.90
10536;DHT22;5316;49.538;8.352;2023-03-23T11:29:51;14.60;99.90
10536;DHT22;5316;49.538;8.352;2023-03-23T11:32:29;14.60;99.90
10536;DHT22;5316;49.538;8.352;2023-03-23T11:34:58;14.80;99.90
10536;DHT22;5316;49.538;8.352;2023-03-23T11:37:29;14.80;99.90
10536;DHT22;5316;49.538;8.352;2023-03-23T11:39:59;14.90;99.90
10536;DHT22;5316;49.538;8.352;2023-03-23T11:42:38;15.00;99.90
10536;DHT22;5316;49.538;8.352;2023-03-23T11:45:20;15.10;99.90
10536;DHT22;5316;49.538;8.352;2023-03-23T11:47:57;15.10;99.90
10536;DHT22;5316;49.538;8.352;2023-03-23T11:50:28;15.30;95.30
10536;DHT22;5316;49.538;8.352;2023-03-23T11:53:00;15.30;73.90
10536;DHT22;5316;49.538;8.352;2023-03-23T11:55:33;15.30;63.20
10536;DHT22;5316;49.538;8.352;2023-03-23T11:58:09;15.30;38.70
10536;DHT22;5316;49.538;8.352;2023-03-23T12:00:41;15.30;25.70
10536;DHT22;5316;49.538;8.352;2023-03-23T12:03:16;15.30;21.60
10536;DHT22;5316;49.538;8.352;2023-03-23T12:05:49;15.30;18.40
10536;DHT22;5316;49.538;8.352;2023-03-23T12:08:30;15.30;21.80
10536;DHT22;5316;49.538;8.352;2023-03-23T12:11:05;15.30;24.70
10536;DHT22;5316;49.538;8.352;2023-03-23T12:16:37;15.40;7.20
10536;DHT22;5316;49.538;8.352;2023-03-23T12:19:12;15.40;1.00
10536;DHT22;5316;49.538;8.352;2023-03-23T12:21:47;15.40;1.00
10536;DHT22;5316;49.538;8.352;2023-03-23T12:24:26;15.30;1.00
10536;DHT22;5316;49.538;8.352;2023-03-23T12:26:59;15.40;5.00
10536;DHT22;5316;49.538;8.352;2023-03-23T12:29:38;15.40;1.00
10536;DHT22;5316;49.538;8.352;2023-03-23T12:32:36;15.50;1.00
10536;DHT22;5316;49.538;8.352;2023-03-23T12:35:14;15.60;1.00
10536;DHT22;5316;49.538;8.352;2023-03-23T12:37:54;15.50;1.00
10536;DHT22;5316;49.538;8.352;2023-03-23T12:40:32;15.50;1.00
10536;DHT22;5316;49.538;8.352;2023-03-23T12:43:06;15.50;1.00
10536;DHT22;5316;49.538;8.352;2023-03-23T12:45:53;15.50;1.00
10536;DHT22;5316;49.538;8.352;2023-03-23T12:48:24;15.60;1.00
10536;DHT22;5316;49.538;8.352;2023-03-23T12:51:08;15.70;1.00
10536;DHT22;5316;49.538;8.352;2023-03-23T12:53:42;15.80;1.00
10536;DHT22;5316;49.538;8.352;2023-03-23T13:17:26;16.20;1.00
10536;DHT22;5316;49.538;8.352;2023-03-23T13:20:15;16.20;1.00
10536;DHT22;5316;49.538;8.352;2023-03-23T13:22:50;16.20;1.00
10536;DHT22;5316;49.538;8.352;2023-03-23T13:25:29;16.00;1.00
10536;DHT22;5316;49.538;8.352;2023-03-23T13:27:58;15.90;1.00
10536;DHT22;5316;49.538;8.352;2023-03-23T13:30:27;15.70;1.00
10536;DHT22;5316;49.538;8.352;2023-03-23T13:33:03;15.70;1.00
10536;DHT22;5316;49.538;8.352;2023-03-23T13:35:36;15.60;1.00
10536;DHT22;5316;49.538;8.352;2023-03-23T14:17:21;15.50;1.00
10536;DHT22;5316;49.538;8.352;2023-03-23T14:19:51;15.70;1.00
10536;DHT22;5316;49.538;8.352;2023-03-23T14:25:00;15.80;1.00
10536;DHT22;5316;49.538;8.352;2023-03-23T14:27:34;16.00;1.00
10536;DHT22;5316;49.538;8.352;2023-03-23T14:30:04;16.10;1.00
10536;DHT22;5316;49.538;8.352;2023-03-23T14:32:34;16.10;1.00
10536;DHT22;5316;49.538;8.352;2023-03-23T14:35:15;16.10;1.00
10536;DHT22;5316;49.538;8.352;2023-03-23T14:37:44;16.10;1.00
10536;DHT22;5316;49.538;8.352;2023-03-23T14:40:14;16.10;1.00
10536;DHT22;5316;49.538;8.352;2023-03-23T14:42:42;16.10;1.00
10536;DHT22;5316;49.538;8.352;2023-03-23T14:45:14;16.10;1.00
10536;DHT22;5316;49.538;8.352;2023-03-23T14:47:46;16.10;1.00
10536;DHT22;5316;49.538;8.352;2023-03-23T14:52:49;15.80;1.00
10536;DHT22;5316;49.538;8.352;2023-03-23T14:55:18;15.90;1.00
10536;DHT22;5316;49.538;8.352;2023-03-23T14:57:47;15.90;1.00
10536;DHT22;5316;49.538;8.352;2023-03-23T15:00:31;15.90;1.00
10536;DHT22;5316;49.538;8.352;2023-03-23T15:03:03;15.80;1.00
10536;DHT22;5316;49.538;8.352;2023-03-23T15:05:33;15.80;1.00
10536;DHT22;5316;49.538;8.352;2023-03-23T15:08:04;15.60;3.20
10536;DHT22;5316;49.538;8.352;2023-03-23T15:10:33;15.60;14.90
10536;DHT22;5316;49.538;8.352;2023-03-23T15:12:59;15.50;20.00
10536;DHT22;5316;49.538;8.352;2023-03-23T15:15:29;15.40;28.70
10536;DHT22;5316;49.538;8.352;2023-03-23T15:17:57;15.40;27.40
10536;DHT22;5316;49.538;8.352;2023-03-23T15:20:29;15.20;39.20
10536;DHT22;5316;49.538;8.352;2023-03-23T15:23:05;15.20;44.50
10536;DHT22;5316;49.538;8.352;2023-03-23T15:25:34;15.20;45.10
10536;DHT22;5316;49.538;8.352;2023-03-23T15:28:16;15.20;46.10
10536;DHT22;5316;49.538;8.352;2023-03-23T15:30:48;15.20;46.90
10536;DHT22;5316;49.538;8.352;2023-03-23T15:33:15;15.20;51.30
10536;DHT22;5316;49.538;8.352;2023-03-23T15:35:48;15.20;52.60
10536;DHT22;5316;49.538;8.352;2023-03-23T15:38:20;15.20;56.40
10536;DHT22;5316;49.538;8.352;2023-03-23T15:40:50;15.20;50.40
10536;DHT22;5316;49.538;8.352;2023-03-23T15:43:18;15.20;57.90
10536;DHT22;5316;49.538;8.352;2023-03-23T15:45:54;15.30;57.60
10536;DHT22;5316;49.538;8.352;2023-03-23T15:48:22;15.30;51.40
10536;DHT22;5316;49.538;8.352;2023-03-23T15:50:51;15.30;50.70
10536;DHT22;5316;49.538;8.352;2023-03-23T15:53:29;15.30;56.70
10536;DHT22;5316;49.538;8.352;2023-03-23T15:55:59;15.30;56.70
10536;DHT22;5316;49.538;8.352;2023-03-23T15:58:28;15.30;62.20
10536;DHT22;5316;49.538;8.352;2023-03-23T16:00:55;15.30;55.00
10536;DHT22;5316;49.538;8.352;2023-03-23T16:03:25;15.30;59.40
10536;DHT22;5316;49.538;8.352;2023-03-23T16:05:54;15.30;62.50
10536;DHT22;5316;49.538;8.352;2023-03-23T16:08:22;15.30;71.00
10536;DHT22;5316;49.538;8.352;2023-03-23T16:10:49;15.30;68.20
10536;DHT22;5316;49.538;8.352;2023-03-23T16:13:17;15.30;71.20
10536;DHT22;5316;49.538;8.352;2023-03-23T16:15:45;15.30;74.30
10536;DHT22;5316;49.538;8.352;2023-03-23T16:18:17;15.30;79.90
10536;DHT22;5316;49.538;8.352;2023-03-23T16:20:46;15.30;85.10
10536;DHT22;5316;49.538;8.352;2023-03-23T16:23:17;15.30;87.20
10536;DHT22;5316;49.538;8.352;2023-03-23T16:25:44;15.30;85.90
10536;DHT22;5316;49.538;8.352;2023-03-23T16:28:12;15.30;88.10
10536;DHT22;5316;49.538;8.352;2023-03-23T16:30:41;15.30;93.00
10536;DHT22;5316;49.538;8.352;2023-03-23T16:33:09;15.20;97.40
10536;DHT22;5316;49.538;8.352;2023-03-23T16:35:36;15.20;98.30
10536;DHT22;5316;49.538;8.352;2023-03-23T16:38:03;15.20;98.50
10536;DHT22;5316;49.538;8.352;2023-03-23T16:40:32;15.20;99.90
10536;DHT22;5316;49.538;8.352;2023-03-23T16:42:59;15.10;99.90
10536;DHT22;5316;49.538;8.352;2023-03-23T16:45:26;15.00;99.90
10536;DHT22;5316;49.538;8.352;2023-03-23T16:47:53;15.00;99.90
10536;DHT22;5316;49.538;8.352;2023-03-23T16:50:26;15.00;99.90
10536;DHT22;5316;49.538;8.352;2023-03-23T16:52:53;15.00;99.90
10536;DHT22;5316;49.538;8.352;2023-03-23T16:55:21;14.90;99.90
10536;DHT22;5316;49.538;8.352;2023-03-23T16:57:49;14.90;99.90
10536;DHT22;5316;49.538;8.352;2023-03-23T17:00:17;14.90;99.90
10536;DHT22;5316;49.538;8.352;2023-03-23T17:02:47;14.90;99.90
10536;DHT22;5316;49.538;8.352;2023-03-23T17:05:16;14.90;99.90
10536;DHT22;5316;49.538;8.352;2023-03-23T17:07:45;14.90;99.90
10536;DHT22;5316;49.538;8.352;2023-03-23T17:10:13;14.90;99.90
10536;DHT22;5316;49.538;8.352;2023-03-23T17:12:40;14.90;99.90
10536;DHT22;5316;49.538;8.352;2023-03-23T17:15:10;14.90;99.90
10536;DHT22;5316;49.538;8.352;2023-03-23T17:17:37;14.90;99.90
10536;DHT22;5316;49.538;8.352;2023-03-23T17:20:06;14.90;99.90
10536;DHT22;5316;49.538;8.352;2023-03-23T17:22:34;14.90;99.90
10536;DHT22;5316;49.538;8.352;2023-03-23T17:25:02;14.90;99.90
10536;DHT22;5316;49.538;8.352;2023-03-23T17:27:30;14.90;99.90
10536;DHT22;5316;49.538;8.352;2023-03-23T17:29:57;14.80;99.90
10536;DHT22;5316;49.538;8.352;2023-03-23T17:32:25;14.80;99.90
10536;DHT22;5316;49.538;8.352;2023-03-23T17:34:53;14.80;99.90
10536;DHT22;5316;49.538;8.352;2023-03-23T17:37:20;14.80;99.90
10536;DHT22;5316;49.538;8.352;2023-03-23T17:39:47;14.80;99.90
10536;DHT22;5316;49.538;8.352;2023-03-23T17:42:14;14.80;99.90
10536;DHT22;5316;49.538;8.352;2023-03-23T17:44:42;14.80;99.90
10536;DHT22;5316;49.538;8.352;2023-03-23T17:47:10;14.80;99.90
10536;DHT22;5316;49.538;8.352;2023-03-23T17:49:38;14.80;99.90
10536;DHT22;5316;49.538;8.352;2023-03-23T17:52:05;14.80;99.90
10536;DHT22;5316;49.538;8.352;2023-03-23T17:57:08;14.70;99.90
10536;DHT22;5316;49.538;8.352;2023-03-23T17:59:36;14.70;99.90
10536;DHT22;5316;49.538;8.352;2023-03-23T18:02:03;14.70;99.90
10536;DHT22;5316;49.538;8.352;2023-03-23T18:04:31;14.60;99.90
10536;DHT22;5316;49.538;8.352;2023-03-23T18:06:59;14.60;99.90
10536;DHT22;5316;49.538;8.352;2023-03-23T18:09:27;14.70;99.90
10536;DHT22;5316;49.538;8.352;2023-03-23T18:11:54;14.70;99.90
10536;DHT22;5316;49.538;8.352;2023-03-23T18:14:22;14.60;99.90
10536;DHT22;5316;49.538;8.352;2023-03-23T18:16:49;14.60;99.90
10536;DHT22;5316;49.538;8.352;2023-03-23T18:19:17;14.70;99.90
10536;DHT22;5316;49.538;8.352;2023-03-23T18:21:44;14.60;99.90
10536;DHT22;5316;49.538;8.352;2023-03-23T18:24:13;14.60;99.90
10536;DHT22;5316;49.538;8.352;2023-03-23T18:26:40;14.60;99.90
10536;DHT22;5316;49.538;8.352;2023-03-23T18:29:08;14.60;99.90
10536;DHT22;5316;49.538;8.352;2023-03-23T18:31:38;14.60;99.90
10536;DHT22;5316;49.538;8.352;2023-03-23T18:34:18;14.60;99.90
10536;DHT22;5316;49.538;8.352;2023-03-23T18:36:45;14.60;99.90
10536;DHT22;5316;49.538;8.352;2023-03-23T18:39:13;14.60;99.90
10536;DHT22;5316;49.538;8.352;2023-03-23T18:41:40;14.60;99.90
10536;DHT22;5316;49.538;8.352;2023-03-23T18:44:08;14.60;99.90
10536;DHT22;5316;49.538;8.352;2023-03-23T18:46:35;14.60;99.90
10536;DHT22;5316;49.538;8.352;2023-03-23T18:49:17;14.60;99.90
10536;DHT22;5316;49.538;8.352;2023-03-23T18:51:44;14.60;99.90
10536;DHT22;5316;49.538;8.352;2023-03-23T18:54:13;14.50;99.90
10536;DHT22;5316;49.538;8.352;2023-03-23T18:56:43;14.60;99.90
10536;DHT22;5316;49.538;8.352;2023-03-23T18:59:10;14.50;99.90
10536;DHT22;5316;49.538;8.352;2023-03-23T19:01:37;14.50;99.90
10536;DHT22;5316;49.538;8.352;2023-03-23T19:04:04;14.50;99.90
10536;DHT22;5316;49.538;8.352;2023-03-23T19:06:31;14.50;99.90
10536;DHT22;5316;49.538;8.352;2023-03-23T19:09:00;14.50;99.90
10536;DHT22;5316;49.538;8.352;2023-03-23T19:11:28;14.60;99.90
10536;DHT22;5316;49.538;8.352;2023-03-23T19:13:56;14.50;99.90
10536;DHT22;5316;49.538;8.352;2023-03-23T19:16:23;14.50;99.90
10536;DHT22;5316;49.538;8.352;2023-03-23T19:18:50;14.50;99.90
10536;DHT22;5316;49.538;8.352;2023-03-23T19:21:17;14.50;99.90
10536;DHT22;5316;49.538;8.352;2023-03-23T19:23:44;14.60;99.90
10536;DHT22;5316;49.538;8.352;2023-03-23T19:26:20;14.60;99.90
10536;DHT22;5316;49.538;8.352;2023-03-23T19:28:49;14.60;99.90
10536;DHT22;5316;49.538;8.352;2023-03-23T19:31:16;14.60;99.90
10536;DHT22;5316;49.538;8.352;2023-03-23T19:33:46;14.60;99.90
10536;DHT22;5316;49.538;8.352;2023-03-23T19:36:13;14.60;99.90
10536;DHT22;5316;49.538;8.352;2023-03-23T19:38:40;14.60;99.90
10536;DHT22;5316;49.538;8.352;2023-03-23T19:41:08;14.50;99.90
10536;DHT22;5316;49.538;8.352;2023-03-23T19:43:35;14.50;99.90
10536;DHT22;5316;49.538;8.352;2023-03-23T19:49:34;14.50;99.90
10536;DHT22;5316;49.538;8.352;2023-03-23T19:53:11;14.50;99.10
10536;DHT22;5316;49.538;8.352;2023-03-23T19:56:31;14.50;98.20
10536;DHT22;5316;49.538;8.352;2023-03-23T23:29:17;13.60;99.90
10536;DHT22;5316;49.538;8.352;2023-03-23T23:50:23;14.00;99.90
10536;DHT22;5316;49.538;8.352;2023-03-23T23:58:25;14.00;99.90
